Peace — WBF3649 — position and weather

sailwx.info

Track history (hours):
 
Tides and Currents Weather Stations Pressure Air Temp Water Temp Dewpoint Dewpoint Depression Visibility Wind Speed Wind Dir Waves Ship Positions

Peace

Owner: BOWMAN, ERIC L, VENTURA, CA. More information available from US FCC via Universal Licensing System and Coast Guard Vessel Documentation Center.

Last reported at 2017-Nov-19 07:57 UTC. Time now 2017-Nov-19 08:15 UTC.
Position N 34°04' W 119°53'.

Length 20 m.

Type: Diving. MMSI: 367166830.

Date/timePositionNaut miles runAvg speedWind from/ knotsBaromVisibWave heightAir tempDewpointWater temp
2017-Nov-19 07:57N 34°04' W 119°53'0 0.0
2017-Nov-19 07:24N 34°04' W 119°53'0 0.0
2017-Nov-19 06:48N 34°04' W 119°53'0 0.0
2017-Nov-19 05:41N 34°04' W 119°53'0 0.0
2017-Nov-19 05:20N 34°04' W 119°53'0 0.0
2017-Nov-19 04:08N 34°04' W 119°53'0 0.0
2017-Nov-19 03:03N 34°04' W 119°53'0 0.1
2017-Nov-19 02:38N 34°04' W 119°53'2 7.0
2017-Nov-19 02:22N 34°05' W 119°55'3 9.2
2017-Nov-19 02:00N 34°05' W 119°59'5 9.7
2017-Nov-19 01:29N 34°03' W 120°05'5 9.6
2017-Nov-19 01:00N 34°02' W 120°10'1 2.8
2017-Nov-19 00:30N 34°01' W 120°12'0 0.0
2017-Nov-18 23:54N 34°01' W 120°12'0 0.0
2017-Nov-18 23:30N 34°01' W 120°12'1 1.6
2017-Nov-18 23:00N 34°01' W 120°13'0 0.0
2017-Nov-18 22:29N 34°01' W 120°13'0 0.0
2017-Nov-18 21:52N 34°01' W 120°13'0 0.0
2017-Nov-18 21:28N 34°01' W 120°13'1 1.2
2017-Nov-18 21:00N 34°01' W 120°13'1 1.1
2017-Nov-18 20:18N 34°01' W 120°14'0 0.0
2017-Nov-18 20:00N 34°01' W 120°14'0 0.4
2017-Nov-18 19:30N 34°01' W 120°14'1 2.5
2017-Nov-18 18:59N 34°01' W 120°12'0 0.1
2017-Nov-18 18:29N 34°01' W 120°12'0 0.2
2017-Nov-18 18:00N 34°01' W 120°12'0 0.2
2017-Nov-18 16:39N 34°01' W 120°13'0 0.4
2017-Nov-18 15:31N 34°01' W 120°12'0 0.0
2017-Nov-18 15:29N 34°01' W 120°12'2 3.3
2017-Nov-18 15:00N 34°02' W 120°10'5 9.1
2017-Nov-18 14:30N 34°02' W 120°05'5 9.1
2017-Nov-18 14:00N 34°02' W 119°60'5 9.3
2017-Nov-18 13:28N 33°59' W 119°55'20 0.9
2017-Nov-17 14:14N 34°02' W 119°31'2 8.1
2017-Nov-17 13:58N 34°03' W 119°29'4 8.4
2017-Nov-17 13:30N 34°06' W 119°26'4 8.7
2017-Nov-17 13:00N 34°10' W 119°23'5 9.1
2017-Nov-17 12:29N 34°13' W 119°19'3 5.3
2017-Nov-17 11:57N 34°15' W 119°16'0 0.0
2017-Nov-17 11:27N 34°15' W 119°16'0 0.0
2017-Nov-17 11:00N 34°15' W 119°16'0 0.0
2017-Nov-17 10:30N 34°15' W 119°16'0 0.0
2017-Nov-17 10:00N 34°15' W 119°16'0 0.0
2017-Nov-17 09:30N 34°15' W 119°16'0 0.0
2017-Nov-17 09:00N 34°15' W 119°16'0 0.0
2017-Nov-17 08:30N 34°15' W 119°16'0 0.0
2017-Nov-17 08:00N 34°15' W 119°16'0 0.0
2017-Nov-17 06:45N 34°15' W 119°16'0 0.0
2017-Nov-17 06:21N 34°15' W 119°16'0 0.0
2017-Nov-17 05:57N 34°15' W 119°16'0 0.0
2017-Nov-17 05:30N 34°15' W 119°16'0 0.0
2017-Nov-17 04:51N 34°15' W 119°16'0 0.0
2017-Nov-17 03:42N 34°15' W 119°16'0 0.0
2017-Nov-17 03:27N 34°15' W 119°16'0 0.0
2017-Nov-17 02:51N 34°15' W 119°16'0 0.0
2017-Nov-17 02:15N 34°15' W 119°16'0 0.0
2017-Nov-17 01:57N 34°15' W 119°16'0 0.0
2017-Nov-17 01:30N 34°15' W 119°16'0 0.0
2017-Nov-17 00:57N 34°15' W 119°16'0 0.0
2017-Nov-17 00:24N 34°15' W 119°16'0 0.0
2017-Nov-16 23:57N 34°15' W 119°16'0 0.0
2017-Nov-16 23:27N 34°15' W 119°16'0 0.0
2017-Nov-16 22:57N 34°15' W 119°16'0 0.0
2017-Nov-16 22:27N 34°15' W 119°16'0 0.0
2017-Nov-16 22:00N 34°15' W 119°16'0 0.0
2017-Nov-16 18:03N 34°15' W 119°16'0 0.0
2017-Nov-16 17:57N 34°15' W 119°16'0 0.0
2017-Nov-16 17:30N 34°15' W 119°16'0 0.0
2017-Nov-16 16:39N 34°15' W 119°16'0 0.0
2017-Nov-16 16:24N 34°15' W 119°16'0 0.0
2017-Nov-16 15:57N 34°15' W 119°16'0 0.0
2017-Nov-16 15:18N 34°15' W 119°16'0 0.0
2017-Nov-16 15:00N 34°15' W 119°16'0 0.0
2017-Nov-16 14:24N 34°15' W 119°16'0 0.0
2017-Nov-16 14:00N 34°15' W 119°16'0 0.0
2017-Nov-16 13:18N 34°15' W 119°16'0 0.0
2017-Nov-16 12:48N 34°15' W 119°16'0 0.0
2017-Nov-16 12:30N 34°15' W 119°16'0 0.0
2017-Nov-16 11:57N 34°15' W 119°16'0 0.0
2017-Nov-16 09:30N 34°15' W 119°16'0 0.0
2017-Nov-16 07:03N 34°15' W 119°16'0 0.0
2017-Nov-16 06:51N 34°15' W 119°16'0 0.0
2017-Nov-16 06:22N 34°15' W 119°16'0 0.0
2017-Nov-16 06:00N 34°15' W 119°16'0 0.0
2017-Nov-16 05:30N 34°15' W 119°16'0 0.0
2017-Nov-16 05:00N 34°15' W 119°16'0 0.0
2017-Nov-16 04:30N 34°15' W 119°16'0 0.0
2017-Nov-16 03:54N 34°15' W 119°16'0 0.0
2017-Nov-16 03:30N 34°15' W 119°16'0 0.0
2017-Nov-16 03:00N 34°15' W 119°16'0 0.0
2017-Nov-16 02:00N 34°15' W 119°16'0 0.0
2017-Nov-16 00:54N 34°15' W 119°16'0 0.0
2017-Nov-15 23:27N 34°15' W 119°16'0 0.0
2017-Nov-15 22:54N 34°15' W 119°16'0 0.0
2017-Nov-15 21:42N 34°15' W 119°16'0 0.0
2017-Nov-15 20:21N 34°15' W 119°16'0 0.0
2017-Nov-15 19:57N 34°15' W 119°16'0 0.0
2017-Nov-15 19:21N 34°15' W 119°16'0 0.0
2017-Nov-15 18:15N 34°15' W 119°16'0 0.0
2017-Nov-15 15:21N 34°15' W 119°16'0 0.0
2017-Nov-15 14:15N 34°15' W 119°16'0 0.0
2017-Nov-15 13:54N 34°15' W 119°16'0 0.0
2017-Nov-15 12:12N 34°15' W 119°16'0 0.0
2017-Nov-15 11:54N 34°15' W 119°16'0 0.0
2017-Nov-15 11:27N 34°15' W 119°16'0 0.0
2017-Nov-15 11:00N 34°15' W 119°16'0 0.0
2017-Nov-15 10:21N 34°15' W 119°16'0 0.0
2017-Nov-15 08:39N 34°15' W 119°16'0 0.0
2017-Nov-15 08:30N 34°15' W 119°16'0 0.0
2017-Nov-15 07:45N 34°15' W 119°16'0 0.0
2017-Nov-15 06:54N 34°15' W 119°16'0 0.0
2017-Nov-15 06:27N 34°15' W 119°16'0 0.0
2017-Nov-15 06:00N 34°15' W 119°16'0 0.0
2017-Nov-15 05:30N 34°15' W 119°16'0 0.0
2017-Nov-15 05:00N 34°15' W 119°16'0 0.0
2017-Nov-15 04:27N 34°15' W 119°16'0 0.0
2017-Nov-15 03:54N 34°15' W 119°16'0 0.0
2017-Nov-15 03:24N 34°15' W 119°16'0 0.0
2017-Nov-15 03:00N 34°15' W 119°16'0 0.0
2017-Nov-15 02:30N 34°15' W 119°16'0 0.0
2017-Nov-15 01:45N 34°15' W 119°16'0 0.0
2017-Nov-15 01:06N 34°15' W 119°16'0 0.0
2017-Nov-14 22:30N 34°15' W 119°16'0 0.0
2017-Nov-14 19:09N 34°15' W 119°16'0 0.0
2017-Nov-14 18:51N 34°15' W 119°16'0 0.0
2017-Nov-14 18:27N 34°15' W 119°16'0 0.0
2017-Nov-14 17:48N 34°15' W 119°16'0 0.0
2017-Nov-14 16:51N 34°15' W 119°16'0 0.0
2017-Nov-14 16:24N 34°15' W 119°16'0 0.0
2017-Nov-14 16:00N 34°15' W 119°16'0 0.0
2017-Nov-14 15:30N 34°15' W 119°16'0 0.0
2017-Nov-14 15:00N 34°15' W 119°16'0 0.0
2017-Nov-14 14:30N 34°15' W 119°16'0 0.0
2017-Nov-14 13:57N 34°15' W 119°16'0 0.0
2017-Nov-14 13:30N 34°15' W 119°16'0 0.0
2017-Nov-14 13:00N 34°15' W 119°16'0 0.0
2017-Nov-14 11:27N 34°15' W 119°16'0 0.0
2017-Nov-14 10:57N 34°15' W 119°16'0 0.0
2017-Nov-14 10:27N 34°15' W 119°16'0 0.0
2017-Nov-14 10:00N 34°15' W 119°16'0 0.0
2017-Nov-14 09:27N 34°15' W 119°16'0 0.0
2017-Nov-14 08:57N 34°15' W 119°16'0 0.0
2017-Nov-14 08:30N 34°15' W 119°16'0 0.0
2017-Nov-14 08:00N 34°15' W 119°16'0 0.0
2017-Nov-14 07:30N 34°15' W 119°16'0 0.0
2017-Nov-14 07:00N 34°15' W 119°16'0 0.0
2017-Nov-14 06:27N 34°15' W 119°16'0 0.0
2017-Nov-14 05:51N 34°15' W 119°16'0 0.0
2017-Nov-14 05:27N 34°15' W 119°16'0 0.0
2017-Nov-14 05:00N 34°15' W 119°16'0 0.0
2017-Nov-14 03:42N 34°15' W 119°16'0 0.0
2017-Nov-14 03:27N 34°15' W 119°16'0 0.0
2017-Nov-14 02:48N 34°15' W 119°16'0 0.0
2017-Nov-14 02:27N 34°15' W 119°16'0 0.0
2017-Nov-14 01:57N 34°15' W 119°16'0 0.0
2017-Nov-14 01:30N 34°15' W 119°16'0 0.0
2017-Nov-14 00:39N 34°15' W 119°16'0 0.0
2017-Nov-14 00:30N 34°15' W 119°16'0 0.0
2017-Nov-13 23:51N 34°15' W 119°16'0 0.0
2017-Nov-13 23:18N 34°15' W 119°16'0 0.0
2017-Nov-13 22:21N 34°15' W 119°16'0 0.0
2017-Nov-13 21:57N 34°15' W 119°16'0 0.0
2017-Nov-13 02:00N 34°15' W 119°16'0 0.5
2017-Nov-13 01:29N 34°15' W 119°16'4 8.1
2017-Nov-13 01:00N 34°13' W 119°20'5 9.2
2017-Nov-13 00:29N 34°09' W 119°24'13 1.3
2017-Nov-12 14:15N 33°56' W 119°29'210.0
2017-Nov-12 14:00N 33°55' W 119°27'5 9.8
2017-Nov-12 13:30N 33°51' W 119°23'5 9.5
2017-Nov-12 13:00N 33°47' W 119°20'5 9.1
2017-Nov-12 12:30N 33°44' W 119°17'5 9.2
2017-Nov-12 12:00N 33°40' W 119°13'4 9.1
2017-Nov-12 11:30N 33°37' W 119°09'9 0.5
2017-Nov-11 17:08N 33°29' W 119°02'2 6.9
2017-Nov-11 16:54N 33°29' W 119°04'6 2.7
2017-Nov-11 14:38N 33°35' W 119°05'2 9.0
2017-Nov-11 14:27N 33°36' W 119°06'4 9.3
2017-Nov-11 14:00N 33°40' W 119°07'5 9.2
2017-Nov-11 13:30N 33°45' W 119°08'5 9.1
2017-Nov-11 13:00N 33°49' W 119°10'5 9.2
2017-Nov-11 12:30N 33°54' W 119°11'5 9.4
2017-Nov-11 12:00N 33°58' W 119°12'5 9.5
2017-Nov-11 11:30N 34°03' W 119°14'5 9.3
2017-Nov-11 11:00N 34°07' W 119°15'5 9.1
2017-Nov-11 10:28N 34°12' W 119°16'3 5.6
2017-Nov-11 09:59N 34°15' W 119°16'0 0.0
2017-Nov-11 09:29N 34°15' W 119°16'0 0.0
2017-Nov-11 08:59N 34°15' W 119°16'0 0.0
2017-Nov-11 08:29N 34°15' W 119°16'0 0.0
2017-Nov-11 07:59N 34°15' W 119°16'0 0.0
2017-Nov-11 07:29N 34°15' W 119°16'0 0.0
2017-Nov-11 06:53N 34°15' W 119°16'0 0.0
2017-Nov-11 06:29N 34°15' W 119°16'0 0.0
2017-Nov-11 05:53N 34°15' W 119°16'0 0.0
2017-Nov-11 05:29N 34°15' W 119°16'0 0.0
2017-Nov-11 04:59N 34°15' W 119°16'0 0.0
2017-Nov-11 04:29N 34°15' W 119°16'0 0.0
2017-Nov-11 03:59N 34°15' W 119°16'0 0.0
2017-Nov-11 03:29N 34°15' W 119°16'0 0.0
2017-Nov-11 02:56N 34°15' W 119°16'0 0.0
2017-Nov-11 02:29N 34°15' W 119°16'0 0.0
2017-Nov-11 01:56N 34°15' W 119°16'0 0.0
2017-Nov-11 01:23N 34°15' W 119°16'0 0.0
2017-Nov-11 00:59N 34°15' W 119°16'0 0.0
2017-Nov-11 00:23N 34°15' W 119°16'2 4.9
2017-Nov-11 00:00N 34°14' W 119°18'5 9.3
2017-Nov-10 23:27N 34°10' W 119°22'4 9.5
2017-Nov-10 23:00N 34°07' W 119°26'5 9.5
2017-Nov-10 22:27N 34°03' W 119°30'2 0.2
2017-Nov-10 14:03N 34°02' W 119°31'2 9.2
2017-Nov-10 13:48N 34°04' W 119°29'3 9.3
2017-Nov-10 13:30N 34°06' W 119°27'5 9.5
2017-Nov-10 12:59N 34°09' W 119°23'5 9.5
2017-Nov-10 12:30N 34°13' W 119°19'3 6.9
2017-Nov-10 12:00N 34°15' W 119°16'0 0.0
2017-Nov-10 11:30N 34°15' W 119°16'0 0.0
2017-Nov-10 11:00N 34°15' W 119°16'0 0.0
2017-Nov-10 10:15N 34°15' W 119°16'0 0.0
2017-Nov-10 10:00N 34°15' W 119°16'0 0.0
2017-Nov-10 09:30N 34°15' W 119°16'0 0.0
2017-Nov-10 08:48N 34°15' W 119°16'0 0.0
2017-Nov-10 08:30N 34°15' W 119°16'0 0.0
2017-Nov-10 08:00N 34°15' W 119°16'0 0.0
2017-Nov-10 07:30N 34°15' W 119°16'0 0.0
2017-Nov-10 07:00N 34°15' W 119°16'0 0.0
2017-Nov-10 06:27N 34°15' W 119°16'0 0.0
2017-Nov-10 06:00N 34°15' W 119°16'0 0.0
2017-Nov-10 05:30N 34°15' W 119°16'0 0.0
2017-Nov-10 05:00N 34°15' W 119°16'0 0.0
2017-Nov-10 04:27N 34°15' W 119°16'0 0.0
2017-Nov-10 04:00N 34°15' W 119°16'0 0.0
2017-Nov-10 03:30N 34°15' W 119°16'0 0.0
2017-Nov-10 03:00N 34°15' W 119°16'0 0.0
2017-Nov-10 02:24N 34°15' W 119°16'0 0.0
2017-Nov-10 02:00N 34°15' W 119°16'0 0.0
2017-Nov-10 01:27N 34°15' W 119°16'0 0.0
2017-Nov-10 01:00N 34°15' W 119°16'0 0.0
2017-Nov-10 00:30N 34°15' W 119°16'0 0.0
2017-Nov-09 23:57N 34°15' W 119°16'0 0.0
2017-Nov-09 23:27N 34°15' W 119°16'0 0.0
2017-Nov-09 23:00N 34°15' W 119°16'0 0.0
2017-Nov-09 22:30N 34°15' W 119°16'0 0.0
2017-Nov-09 22:00N 34°15' W 119°16'0 0.0
2017-Nov-09 21:30N 34°15' W 119°16'0 0.0
2017-Nov-09 21:00N 34°15' W 119°16'0 0.3
2017-Nov-09 20:27N 34°14' W 119°16'0 0.4
2017-Nov-09 19:59N 34°15' W 119°16'0 0.0
2017-Nov-09 19:26N 34°15' W 119°16'0 0.0
2017-Nov-09 18:59N 34°15' W 119°16'0 0.0
2017-Nov-09 18:29N 34°15' W 119°16'0 0.0
2017-Nov-09 17:59N 34°15' W 119°16'0 0.0
2017-Nov-09 17:23N 34°15' W 119°16'0 0.0
2017-Nov-09 16:56N 34°15' W 119°16'0 0.0
2017-Nov-09 16:29N 34°15' W 119°16'0 0.0
2017-Nov-09 15:59N 34°15' W 119°16'0 0.0
2017-Nov-09 15:29N 34°15' W 119°16'0 0.0
2017-Nov-09 14:59N 34°15' W 119°16'0 0.0
2017-Nov-09 14:29N 34°15' W 119°16'0 0.0
2017-Nov-09 13:59N 34°15' W 119°16'0 0.0
2017-Nov-09 13:29N 34°15' W 119°16'0 0.0
2017-Nov-09 12:59N 34°15' W 119°16'0 0.0
2017-Nov-09 12:29N 34°15' W 119°16'0 0.0
2017-Nov-09 11:59N 34°15' W 119°16'0 0.0
2017-Nov-09 11:29N 34°15' W 119°16'0 0.0
2017-Nov-09 10:59N 34°15' W 119°16'0 0.0
2017-Nov-09 10:26N 34°15' W 119°16'0 0.0
2017-Nov-09 09:59N 34°15' W 119°16'0 0.0
2017-Nov-09 09:29N 34°15' W 119°16'0 0.0
2017-Nov-09 08:59N 34°15' W 119°16'0 0.0
2017-Nov-09 08:29N 34°15' W 119°16'0 0.0
2017-Nov-09 07:59N 34°15' W 119°16'  
Track history (hours):
 
Tides and Currents Weather Stations Pressure Air Temp Water Temp Dewpoint Dewpoint Depression Visibility Wind Speed Wind Dir Waves Ship Positions

Peace

Owner: BOWMAN, ERIC L, VENTURA, CA. More information available from US FCC via Universal Licensing System and Coast Guard Vessel Documentation Center.

Last reported at 2017-Nov-19 07:57 UTC. Time now 2017-Nov-19 08:15 UTC.
Position N 34°04' W 119°53'.

Length 20 m.

Type: Diving. MMSI: 367166830.

Date/timePositionNaut miles runAvg speedWind from/ knotsBaromVisibWave heightAir tempDewpointWater temp
2017-Nov-19 07:57N 34°04' W 119°53'0 0.0
2017-Nov-19 07:24N 34°04' W 119°53'0 0.0
2017-Nov-19 06:48N 34°04' W 119°53'0 0.0
2017-Nov-19 05:41N 34°04' W 119°53'0 0.0
2017-Nov-19 05:20N 34°04' W 119°53'0 0.0
2017-Nov-19 04:08N 34°04' W 119°53'0 0.0
2017-Nov-19 03:03N 34°04' W 119°53'0 0.1
2017-Nov-19 02:38N 34°04' W 119°53'2 7.0
2017-Nov-19 02:22N 34°05' W 119°55'3 9.2
2017-Nov-19 02:00N 34°05' W 119°59'5 9.7
2017-Nov-19 01:29N 34°03' W 120°05'5 9.6
2017-Nov-19 01:00N 34°02' W 120°10'1 2.8
2017-Nov-19 00:30N 34°01' W 120°12'0 0.0
2017-Nov-18 23:54N 34°01' W 120°12'0 0.0
2017-Nov-18 23:30N 34°01' W 120°12'1 1.6
2017-Nov-18 23:00N 34°01' W 120°13'0 0.0
2017-Nov-18 22:29N 34°01' W 120°13'0 0.0
2017-Nov-18 21:52N 34°01' W 120°13'0 0.0
2017-Nov-18 21:28N 34°01' W 120°13'1 1.2
2017-Nov-18 21:00N 34°01' W 120°13'1 1.1
2017-Nov-18 20:18N 34°01' W 120°14'0 0.0
2017-Nov-18 20:00N 34°01' W 120°14'0 0.4
2017-Nov-18 19:30N 34°01' W 120°14'1 2.5
2017-Nov-18 18:59N 34°01' W 120°12'0 0.1
2017-Nov-18 18:29N 34°01' W 120°12'0 0.2
2017-Nov-18 18:00N 34°01' W 120°12'0 0.2
2017-Nov-18 16:39N 34°01' W 120°13'0 0.4
2017-Nov-18 15:31N 34°01' W 120°12'0 0.0
2017-Nov-18 15:29N 34°01' W 120°12'2 3.3
2017-Nov-18 15:00N 34°02' W 120°10'5 9.1
2017-Nov-18 14:30N 34°02' W 120°05'5 9.1
2017-Nov-18 14:00N 34°02' W 119°60'5 9.3
2017-Nov-18 13:28N 33°59' W 119°55'20 0.9
2017-Nov-17 14:14N 34°02' W 119°31'2 8.1
2017-Nov-17 13:58N 34°03' W 119°29'4 8.4
2017-Nov-17 13:30N 34°06' W 119°26'4 8.7
2017-Nov-17 13:00N 34°10' W 119°23'5 9.1
2017-Nov-17 12:29N 34°13' W 119°19'3 5.3
2017-Nov-17 11:57N 34°15' W 119°16'0 0.0
2017-Nov-17 11:27N 34°15' W 119°16'0 0.0
2017-Nov-17 11:00N 34°15' W 119°16'0 0.0
2017-Nov-17 10:30N 34°15' W 119°16'0 0.0
2017-Nov-17 10:00N 34°15' W 119°16'0 0.0
2017-Nov-17 09:30N 34°15' W 119°16'0 0.0
2017-Nov-17 09:00N 34°15' W 119°16'0 0.0
2017-Nov-17 08:30N 34°15' W 119°16'0 0.0
2017-Nov-17 08:00N 34°15' W 119°16'0 0.0
2017-Nov-17 06:45N 34°15' W 119°16'0 0.0
2017-Nov-17 06:21N 34°15' W 119°16'0 0.0
2017-Nov-17 05:57N 34°15' W 119°16'0 0.0
2017-Nov-17 05:30N 34°15' W 119°16'0 0.0
2017-Nov-17 04:51N 34°15' W 119°16'0 0.0
2017-Nov-17 03:42N 34°15' W 119°16'0 0.0
2017-Nov-17 03:27N 34°15' W 119°16'0 0.0
2017-Nov-17 02:51N 34°15' W 119°16'0 0.0
2017-Nov-17 02:15N 34°15' W 119°16'0 0.0
2017-Nov-17 01:57N 34°15' W 119°16'0 0.0
2017-Nov-17 01:30N 34°15' W 119°16'0 0.0
2017-Nov-17 00:57N 34°15' W 119°16'0 0.0
2017-Nov-17 00:24N 34°15' W 119°16'0 0.0
2017-Nov-16 23:57N 34°15' W 119°16'0 0.0
2017-Nov-16 23:27N 34°15' W 119°16'0 0.0
2017-Nov-16 22:57N 34°15' W 119°16'0 0.0
2017-Nov-16 22:27N 34°15' W 119°16'0 0.0
2017-Nov-16 22:00N 34°15' W 119°16'0 0.0
2017-Nov-16 18:03N 34°15' W 119°16'0 0.0
2017-Nov-16 17:57N 34°15' W 119°16'0 0.0
2017-Nov-16 17:30N 34°15' W 119°16'0 0.0
2017-Nov-16 16:39N 34°15' W 119°16'0 0.0
2017-Nov-16 16:24N 34°15' W 119°16'0 0.0
2017-Nov-16 15:57N 34°15' W 119°16'0 0.0
2017-Nov-16 15:18N 34°15' W 119°16'0 0.0
2017-Nov-16 15:00N 34°15' W 119°16'0 0.0
2017-Nov-16 14:24N 34°15' W 119°16'0 0.0
2017-Nov-16 14:00N 34°15' W 119°16'0 0.0
2017-Nov-16 13:18N 34°15' W 119°16'0 0.0
2017-Nov-16 12:48N 34°15' W 119°16'0 0.0
2017-Nov-16 12:30N 34°15' W 119°16'0 0.0
2017-Nov-16 11:57N 34°15' W 119°16'0 0.0
2017-Nov-16 09:30N 34°15' W 119°16'0 0.0
2017-Nov-16 07:03N 34°15' W 119°16'0 0.0
2017-Nov-16 06:51N 34°15' W 119°16'0 0.0
2017-Nov-16 06:22N 34°15' W 119°16'0 0.0
2017-Nov-16 06:00N 34°15' W 119°16'0 0.0
2017-Nov-16 05:30N 34°15' W 119°16'0 0.0
2017-Nov-16 05:00N 34°15' W 119°16'0 0.0
2017-Nov-16 04:30N 34°15' W 119°16'0 0.0
2017-Nov-16 03:54N 34°15' W 119°16'0 0.0
2017-Nov-16 03:30N 34°15' W 119°16'0 0.0
2017-Nov-16 03:00N 34°15' W 119°16'0 0.0
2017-Nov-16 02:00N 34°15' W 119°16'0 0.0
2017-Nov-16 00:54N 34°15' W 119°16'0 0.0
2017-Nov-15 23:27N 34°15' W 119°16'0 0.0
2017-Nov-15 22:54N 34°15' W 119°16'0 0.0
2017-Nov-15 21:42N 34°15' W 119°16'0 0.0
2017-Nov-15 20:21N 34°15' W 119°16'0 0.0
2017-Nov-15 19:57N 34°15' W 119°16'0 0.0
2017-Nov-15 19:21N 34°15' W 119°16'0 0.0
2017-Nov-15 18:15N 34°15' W 119°16'0 0.0
2017-Nov-15 15:21N 34°15' W 119°16'0 0.0
2017-Nov-15 14:15N 34°15' W 119°16'0 0.0
2017-Nov-15 13:54N 34°15' W 119°16'0 0.0
2017-Nov-15 12:12N 34°15' W 119°16'0 0.0
2017-Nov-15 11:54N 34°15' W 119°16'0 0.0
2017-Nov-15 11:27N 34°15' W 119°16'0 0.0
2017-Nov-15 11:00N 34°15' W 119°16'0 0.0
2017-Nov-15 10:21N 34°15' W 119°16'0 0.0
2017-Nov-15 08:39N 34°15' W 119°16'0 0.0
2017-Nov-15 08:30N 34°15' W 119°16'0 0.0
2017-Nov-15 07:45N 34°15' W 119°16'0 0.0
2017-Nov-15 06:54N 34°15' W 119°16'0 0.0
2017-Nov-15 06:27N 34°15' W 119°16'0 0.0
2017-Nov-15 06:00N 34°15' W 119°16'0 0.0
2017-Nov-15 05:30N 34°15' W 119°16'0 0.0
2017-Nov-15 05:00N 34°15' W 119°16'0 0.0
2017-Nov-15 04:27N 34°15' W 119°16'0 0.0
2017-Nov-15 03:54N 34°15' W 119°16'0 0.0
2017-Nov-15 03:24N 34°15' W 119°16'0 0.0
2017-Nov-15 03:00N 34°15' W 119°16'0 0.0
2017-Nov-15 02:30N 34°15' W 119°16'0 0.0
2017-Nov-15 01:45N 34°15' W 119°16'0 0.0
2017-Nov-15 01:06N 34°15' W 119°16'0 0.0
2017-Nov-14 22:30N 34°15' W 119°16'0 0.0
2017-Nov-14 19:09N 34°15' W 119°16'0 0.0
2017-Nov-14 18:51N 34°15' W 119°16'0 0.0
2017-Nov-14 18:27N 34°15' W 119°16'0 0.0
2017-Nov-14 17:48N 34°15' W 119°16'0 0.0
2017-Nov-14 16:51N 34°15' W 119°16'0 0.0
2017-Nov-14 16:24N 34°15' W 119°16'0 0.0
2017-Nov-14 16:00N 34°15' W 119°16'0 0.0
2017-Nov-14 15:30N 34°15' W 119°16'0 0.0
2017-Nov-14 15:00N 34°15' W 119°16'0 0.0
2017-Nov-14 14:30N 34°15' W 119°16'0 0.0
2017-Nov-14 13:57N 34°15' W 119°16'0 0.0
2017-Nov-14 13:30N 34°15' W 119°16'0 0.0
2017-Nov-14 13:00N 34°15' W 119°16'0 0.0
2017-Nov-14 11:27N 34°15' W 119°16'0 0.0
2017-Nov-14 10:57N 34°15' W 119°16'0 0.0
2017-Nov-14 10:27N 34°15' W 119°16'0 0.0
2017-Nov-14 10:00N 34°15' W 119°16'0 0.0
2017-Nov-14 09:27N 34°15' W 119°16'0 0.0
2017-Nov-14 08:57N 34°15' W 119°16'0 0.0
2017-Nov-14 08:30N 34°15' W 119°16'0 0.0
2017-Nov-14 08:00N 34°15' W 119°16'0 0.0
2017-Nov-14 07:30N 34°15' W 119°16'0 0.0
2017-Nov-14 07:00N 34°15' W 119°16'0 0.0
2017-Nov-14 06:27N 34°15' W 119°16'0 0.0
2017-Nov-14 05:51N 34°15' W 119°16'0 0.0
2017-Nov-14 05:27N 34°15' W 119°16'0 0.0
2017-Nov-14 05:00N 34°15' W 119°16'0 0.0
2017-Nov-14 03:42N 34°15' W 119°16'0 0.0
2017-Nov-14 03:27N 34°15' W 119°16'0 0.0
2017-Nov-14 02:48N 34°15' W 119°16'0 0.0
2017-Nov-14 02:27N 34°15' W 119°16'0 0.0
2017-Nov-14 01:57N 34°15' W 119°16'0 0.0
2017-Nov-14 01:30N 34°15' W 119°16'0 0.0
2017-Nov-14 00:39N 34°15' W 119°16'0 0.0
2017-Nov-14 00:30N 34°15' W 119°16'0 0.0
2017-Nov-13 23:51N 34°15' W 119°16'0 0.0
2017-Nov-13 23:18N 34°15' W 119°16'0 0.0
2017-Nov-13 22:21N 34°15' W 119°16'0 0.0
2017-Nov-13 21:57N 34°15' W 119°16'0 0.0
2017-Nov-13 02:00N 34°15' W 119°16'0 0.5
2017-Nov-13 01:29N 34°15' W 119°16'4 8.1
2017-Nov-13 01:00N 34°13' W 119°20'5 9.2
2017-Nov-13 00:29N 34°09' W 119°24'13 1.3
2017-Nov-12 14:15N 33°56' W 119°29'210.0
2017-Nov-12 14:00N 33°55' W 119°27'5 9.8
2017-Nov-12 13:30N 33°51' W 119°23'5 9.5
2017-Nov-12 13:00N 33°47' W 119°20'5 9.1
2017-Nov-12 12:30N 33°44' W 119°17'5 9.2
2017-Nov-12 12:00N 33°40' W 119°13'4 9.1
2017-Nov-12 11:30N 33°37' W 119°09'9 0.5
2017-Nov-11 17:08N 33°29' W 119°02'2 6.9
2017-Nov-11 16:54N 33°29' W 119°04'6 2.7
2017-Nov-11 14:38N 33°35' W 119°05'2 9.0
2017-Nov-11 14:27N 33°36' W 119°06'4 9.3
2017-Nov-11 14:00N 33°40' W 119°07'5 9.2
2017-Nov-11 13:30N 33°45' W 119°08'5 9.1
2017-Nov-11 13:00N 33°49' W 119°10'5 9.2
2017-Nov-11 12:30N 33°54' W 119°11'5 9.4
2017-Nov-11 12:00N 33°58' W 119°12'5 9.5
2017-Nov-11 11:30N 34°03' W 119°14'5 9.3
2017-Nov-11 11:00N 34°07' W 119°15'5 9.1
2017-Nov-11 10:28N 34°12' W 119°16'3 5.6
2017-Nov-11 09:59N 34°15' W 119°16'0 0.0
2017-Nov-11 09:29N 34°15' W 119°16'0 0.0
2017-Nov-11 08:59N 34°15' W 119°16'0 0.0
2017-Nov-11 08:29N 34°15' W 119°16'0 0.0
2017-Nov-11 07:59N 34°15' W 119°16'0 0.0
2017-Nov-11 07:29N 34°15' W 119°16'0 0.0
2017-Nov-11 06:53N 34°15' W 119°16'0 0.0
2017-Nov-11 06:29N 34°15' W 119°16'0 0.0
2017-Nov-11 05:53N 34°15' W 119°16'0 0.0
2017-Nov-11 05:29N 34°15' W 119°16'0 0.0
2017-Nov-11 04:59N 34°15' W 119°16'0 0.0
2017-Nov-11 04:29N 34°15' W 119°16'0 0.0
2017-Nov-11 03:59N 34°15' W 119°16'0 0.0
2017-Nov-11 03:29N 34°15' W 119°16'0 0.0
2017-Nov-11 02:56N 34°15' W 119°16'0 0.0
2017-Nov-11 02:29N 34°15' W 119°16'0 0.0
2017-Nov-11 01:56N 34°15' W 119°16'0 0.0
2017-Nov-11 01:23N 34°15' W 119°16'0 0.0
2017-Nov-11 00:59N 34°15' W 119°16'0 0.0
2017-Nov-11 00:23N 34°15' W 119°16'2 4.9
2017-Nov-11 00:00N 34°14' W 119°18'5 9.3
2017-Nov-10 23:27N 34°10' W 119°22'4 9.5
2017-Nov-10 23:00N 34°07' W 119°26'5 9.5
2017-Nov-10 22:27N 34°03' W 119°30'2 0.2
2017-Nov-10 14:03N 34°02' W 119°31'2 9.2
2017-Nov-10 13:48N 34°04' W 119°29'3 9.3
2017-Nov-10 13:30N 34°06' W 119°27'5 9.5
2017-Nov-10 12:59N 34°09' W 119°23'5 9.5
2017-Nov-10 12:30N 34°13' W 119°19'3 6.9
2017-Nov-10 12:00N 34°15' W 119°16'0 0.0
2017-Nov-10 11:30N 34°15' W 119°16'0 0.0
2017-Nov-10 11:00N 34°15' W 119°16'0 0.0
2017-Nov-10 10:15N 34°15' W 119°16'0 0.0
2017-Nov-10 10:00N 34°15' W 119°16'0 0.0
2017-Nov-10 09:30N 34°15' W 119°16'0 0.0
2017-Nov-10 08:48N 34°15' W 119°16'0 0.0
2017-Nov-10 08:30N 34°15' W 119°16'0 0.0
2017-Nov-10 08:00N 34°15' W 119°16'0 0.0
2017-Nov-10 07:30N 34°15' W 119°16'0 0.0
2017-Nov-10 07:00N 34°15' W 119°16'0 0.0
2017-Nov-10 06:27N 34°15' W 119°16'0 0.0
2017-Nov-10 06:00N 34°15' W 119°16'0 0.0
2017-Nov-10 05:30N 34°15' W 119°16'0 0.0
2017-Nov-10 05:00N 34°15' W 119°16'0 0.0
2017-Nov-10 04:27N 34°15' W 119°16'0 0.0
2017-Nov-10 04:00N 34°15' W 119°16'0 0.0
2017-Nov-10 03:30N 34°15' W 119°16'0 0.0
2017-Nov-10 03:00N 34°15' W 119°16'0 0.0
2017-Nov-10 02:24N 34°15' W 119°16'0 0.0
2017-Nov-10 02:00N 34°15' W 119°16'0 0.0
2017-Nov-10 01:27N 34°15' W 119°16'0 0.0
2017-Nov-10 01:00N 34°15' W 119°16'0 0.0
2017-Nov-10 00:30N 34°15' W 119°16'0 0.0
2017-Nov-09 23:57N 34°15' W 119°16'0 0.0
2017-Nov-09 23:27N 34°15' W 119°16'0 0.0
2017-Nov-09 23:00N 34°15' W 119°16'0 0.0
2017-Nov-09 22:30N 34°15' W 119°16'0 0.0
2017-Nov-09 22:00N 34°15' W 119°16'0 0.0
2017-Nov-09 21:30N 34°15' W 119°16'0 0.0
2017-Nov-09 21:00N 34°15' W 119°16'0 0.3
2017-Nov-09 20:27N 34°14' W 119°16'0 0.4
2017-Nov-09 19:59N 34°15' W 119°16'0 0.0
2017-Nov-09 19:26N 34°15' W 119°16'0 0.0
2017-Nov-09 18:59N 34°15' W 119°16'0 0.0
2017-Nov-09 18:29N 34°15' W 119°16'0 0.0
2017-Nov-09 17:59N 34°15' W 119°16'0 0.0
2017-Nov-09 17:23N 34°15' W 119°16'0 0.0
2017-Nov-09 16:56N 34°15' W 119°16'0 0.0
2017-Nov-09 16:29N 34°15' W 119°16'0 0.0
2017-Nov-09 15:59N 34°15' W 119°16'0 0.0
2017-Nov-09 15:29N 34°15' W 119°16'0 0.0
2017-Nov-09 14:59N 34°15' W 119°16'0 0.0
2017-Nov-09 14:29N 34°15' W 119°16'0 0.0
2017-Nov-09 13:59N 34°15' W 119°16'0 0.0
2017-Nov-09 13:29N 34°15' W 119°16'0 0.0
2017-Nov-09 12:59N 34°15' W 119°16'0 0.0
2017-Nov-09 12:29N 34°15' W 119°16'0 0.0
2017-Nov-09 11:59N 34°15' W 119°16'0 0.0
2017-Nov-09 11:29N 34°15' W 119°16'0 0.0
2017-Nov-09 10:59N 34°15' W 119°16'0 0.0
2017-Nov-09 10:26N 34°15' W 119°16'0 0.0
2017-Nov-09 09:59N 34°15' W 119°16'0 0.0
2017-Nov-09 09:29N 34°15' W 119°16'0 0.0
2017-Nov-09 08:59N 34°15' W 119°16'0 0.0
2017-Nov-09 08:29N 34°15' W 119°16'0 0.0
2017-Nov-09 07:59N 34°15' W 119°16'  

Dump ship's entire track history